Time;durP1;ratioP1;P1;durP2;ratioP2;P2;SDS_P1;SDS_P2;PMS_P1;PMS_P2;Temp;Humidity;BMP_temperature;BMP_pressure;BME280_temperature;BME280_humidity;BME280_pressure;Samples;Min_cycle;Max_cycle;Signal;HPM_P1;HPM_P2
2024/01/26 00:01:36;;;;;;;206.38;56.60;;;;;;;;;;4972667;28;20405;-45
2024/01/26 00:04:02;;;;;;;211.90;59.60;;;;;;;;;;4972259;28;20244;-45
2024/01/26 00:06:28;;;;;;;209.80;59.90;;;;;;;;;;4972421;28;20213;-44
2024/01/26 00:08:54;;;;;;;209.25;58.15;;;;;;;;;;4972388;28;20409;-44
2024/01/26 00:11:20;;;;;;;211.68;60.10;;;;;;;;;;4964464;28;20241;-45
2024/01/26 00:13:46;;;;;;;211.98;59.47;;;;;;;;;;4972117;28;20547;-45
2024/01/26 00:16:12;;;;;;;207.60;58.15;;;;;;;;;;4972219;28;20653;-45
2024/01/26 00:18:41;;;;;;;208.60;59.10;;;;;;;;;;4972218;28;20181;-45
2024/01/26 00:21:08;;;;;;;209.20;59.50;;;;;;;;;;4972239;28;20331;-44
2024/01/26 00:23:35;;;;;;;208.65;60.03;;;;;;;;;;4971736;28;20177;-45
2024/01/26 00:26:01;;;;;;;209.68;59.20;;;;;;;;;;4971954;28;20202;-45
2024/01/26 00:28:27;;;;;;;210.47;59.07;;;;;;;;;;4972271;28;20181;-45
2024/01/26 00:30:53;;;;;;;211.40;56.77;;;;;;;;;;4972482;28;20417;-44
2024/01/26 00:33:19;;;;;;;213.87;62.77;;;;;;;;;;4971965;28;20607;-45
2024/01/26 00:35:45;;;;;;;212.07;58.57;;;;;;;;;;4971960;28;20432;-45
2024/01/26 00:38:11;;;;;;;212.57;59.73;;;;;;;;;;4973022;28;20528;-44
2024/01/26 00:40:37;;;;;;;211.93;59.05;;;;;;;;;;4975650;28;20409;-45
2024/01/26 00:43:03;;;;;;;215.20;63.90;;;;;;;;;;4976637;28;20193;-47
2024/01/26 00:45:28;;;;;;;216.65;64.60;;;;;;;;;;4974762;28;20432;-47
2024/01/26 00:47:54;;;;;;;210.20;59.10;;;;;;;;;;4976660;28;20182;-47
2024/01/26 00:50:20;;;;;;;212.20;60.40;;;;;;;;;;4977114;28;20397;-47
2024/01/26 00:52:47;;;;;;;211.80;60.05;;;;;;;;;;4978244;28;20412;-45
2024/01/26 00:55:13;;;;;;;212.70;59.03;;;;;;;;;;4976128;28;20195;-45
2024/01/26 00:57:39;;;;;;;210.47;57.33;;;;;;;;;;4976964;28;20177;-47
2024/01/26 01:00:07;;;;;;;214.90;62.33;;;;;;;;;;4977483;28;20509;-47
2024/01/26 01:02:33;;;;;;;213.18;60.95;;;;;;;;;;4977324;28;20178;-47
2024/01/26 01:04:59;;;;;;;210.30;57.67;;;;;;;;;;4976375;28;20630;-46
2024/01/26 01:07:25;;;;;;;210.32;58.40;;;;;;;;;;4976817;28;20170;-47
2024/01/26 01:09:51;;;;;;;210.03;59.30;;;;;;;;;;4977055;28;20186;-47
2024/01/26 01:12:18;;;;;;;210.77;58.47;;;;;;;;;;4976907;28;20492;-49
2024/01/26 01:14:44;;;;;;;212.32;59.22;;;;;;;;;;4976688;28;20848;-47
2024/01/26 01:17:11;;;;;;;216.10;64.80;;;;;;;;;;4975185;28;20617;-47
2024/01/26 01:19:37;;;;;;;211.35;60.40;;;;;;;;;;4978823;28;20169;-46
2024/01/26 01:22:03;;;;;;;213.57;63.45;;;;;;;;;;4979514;28;20732;-46
2024/01/26 01:24:29;;;;;;;209.63;58.92;;;;;;;;;;4976362;28;20194;-46
2024/01/26 01:26:55;;;;;;;214.17;62.70;;;;;;;;;;4976499;28;20577;-46
2024/01/26 01:29:21;;;;;;;217.03;64.40;;;;;;;;;;4976377;28;20508;-46
2024/01/26 01:31:47;;;;;;;212.87;59.33;;;;;;;;;;4976052;28;20421;-46
2024/01/26 01:34:13;;;;;;;213.02;60.58;;;;;;;;;;4975795;28;20460;-46
2024/01/26 01:36:39;;;;;;;216.87;61.73;;;;;;;;;;4975635;28;20172;-46
2024/01/26 01:39:05;;;;;;;207.73;61.30;;;;;;;;;;4975810;28;20420;-46
2024/01/26 01:41:30;;;;;;;196.50;58.57;;;;;;;;;;4976018;28;20508;-46
2024/01/26 01:43:57;;;;;;;198.67;60.77;;;;;;;;;;4975180;28;20810;-46
2024/01/26 01:46:23;;;;;;;198.38;60.25;;;;;;;;;;4975579;28;20758;-46
2024/01/26 01:48:49;;;;;;;203.18;59.13;;;;;;;;;;4975869;28;20182;-47
2024/01/26 01:51:16;;;;;;;197.88;59.17;;;;;;;;;;4974855;28;20198;-47
2024/01/26 01:53:42;;;;;;;198.93;60.38;;;;;;;;;;4975925;28;20281;-47
2024/01/26 01:56:10;;;;;;;198.98;61.88;;;;;;;;;;4975920;28;20188;-49
2024/01/26 02:01:40;;;;;;;195.38;58.08;;;;;;;;;;4975468;28;20211;-47
2024/01/26 02:04:06;;;;;;;198.20;59.43;;;;;;;;;;4972262;28;20238;-46
2024/01/26 02:06:32;;;;;;;195.63;58.63;;;;;;;;;;4981548;28;20475;-47
2024/01/26 02:08:58;;;;;;;198.77;59.70;;;;;;;;;;4975123;28;20197;-48
2024/01/26 02:11:24;;;;;;;203.53;63.23;;;;;;;;;;4975399;28;20177;-47
2024/01/26 02:13:50;;;;;;;212.97;60.57;;;;;;;;;;4975117;28;20504;-47
2024/01/26 02:16:16;;;;;;;219.97;65.03;;;;;;;;;;4975838;28;20501;-46
2024/01/26 02:18:42;;;;;;;216.57;60.67;;;;;;;;;;4975426;28;20447;-47
2024/01/26 02:21:07;;;;;;;212.30;60.03;;;;;;;;;;4981380;28;20458;-46
2024/01/26 02:23:33;;;;;;;213.67;61.17;;;;;;;;;;4974925;28;20414;-45
2024/01/26 02:25:59;;;;;;;216.47;63.30;;;;;;;;;;4975460;28;20417;-46
2024/01/26 02:28:25;;;;;;;215.75;61.08;;;;;;;;;;4975993;28;20909;-47
2024/01/26 02:30:51;;;;;;;213.93;59.77;;;;;;;;;;4975766;28;20181;-47
2024/01/26 02:33:17;;;;;;;214.40;59.42;;;;;;;;;;4974892;28;20458;-48
2024/01/26 02:35:43;;;;;;;209.10;58.03;;;;;;;;;;4975620;28;20567;-47
2024/01/26 02:38:09;;;;;;;214.25;62.70;;;;;;;;;;4975441;28;20405;-47
2024/01/26 02:40:35;;;;;;;211.47;61.20;;;;;;;;;;4975522;28;20196;-48
2024/01/26 02:43:01;;;;;;;211.87;61.37;;;;;;;;;;4975582;28;20421;-48
2024/01/26 02:45:27;;;;;;;212.07;60.83;;;;;;;;;;4974997;28;20433;-48
2024/01/26 02:47:54;;;;;;;212.67;60.87;;;;;;;;;;4975529;28;20448;-45
2024/01/26 02:50:20;;;;;;;209.15;57.72;;;;;;;;;;4974844;28;20417;-48
2024/01/26 02:52:46;;;;;;;215.23;64.20;;;;;;;;;;4975157;28;20212;-46
2024/01/26 02:55:12;;;;;;;214.13;62.37;;;;;;;;;;4974857;28;20217;-47
2024/01/26 02:57:38;;;;;;;210.50;59.65;;;;;;;;;;4975087;28;20439;-46
2024/01/26 03:00:07;;;;;;;213.40;61.15;;;;;;;;;;4974946;28;20597;-48
2024/01/26 03:02:33;;;;;;;161.07;55.20;;;;;;;;;;4975013;28;20557;-47
2024/01/26 03:04:59;;;;;;;161.43;56.13;;;;;;;;;;4974508;28;20202;-47
2024/01/26 03:07:25;;;;;;;183.87;59.90;;;;;;;;;;4974867;28;20448;-46
2024/01/26 03:09:50;;;;;;;188.10;57.83;;;;;;;;;;4974997;28;20916;-46
2024/01/26 03:12:16;;;;;;;189.63;57.77;;;;;;;;;;4974716;28;20688;-48
2024/01/26 03:14:42;;;;;;;195.57;59.27;;;;;;;;;;4974790;28;20468;-48
2024/01/26 03:17:08;;;;;;;211.63;61.80;;;;;;;;;;4974479;28;20428;-47
2024/01/26 03:19:36;;;;;;;216.87;59.40;;;;;;;;;;4975154;28;20419;-48
2024/01/26 03:22:02;;;;;;;211.40;61.00;;;;;;;;;;4974544;28;20509;-47
2024/01/26 03:24:28;;;;;;;213.32;60.20;;;;;;;;;;4974424;28;20205;-46
2024/01/26 03:26:54;;;;;;;217.30;60.25;;;;;;;;;;4974560;28;20202;-46
2024/01/26 03:29:20;;;;;;;215.10;58.37;;;;;;;;;;4974810;28;20257;-47
2024/01/26 03:31:46;;;;;;;214.95;61.15;;;;;;;;;;4974765;28;20401;-46
2024/01/26 03:34:12;;;;;;;214.73;62.33;;;;;;;;;;4974430;28;20263;-48
2024/01/26 03:36:38;;;;;;;218.30;63.80;;;;;;;;;;4974360;28;20488;-47
2024/01/26 03:39:04;;;;;;;214.97;63.67;;;;;;;;;;4974723;28;20205;-48
2024/01/26 03:41:30;;;;;;;215.53;60.90;;;;;;;;;;4974772;28;20413;-47
2024/01/26 03:43:56;;;;;;;218.30;63.92;;;;;;;;;;4974173;28;20969;-47
2024/01/26 03:46:22;;;;;;;216.82;65.10;;;;;;;;;;4974505;28;20258;-48
2024/01/26 03:48:48;;;;;;;215.35;62.40;;;;;;;;;;4974858;28;20507;-48
2024/01/26 03:51:15;;;;;;;216.27;67.15;;;;;;;;;;4974770;28;20181;-46
2024/01/26 03:53:41;;;;;;;212.80;61.97;;;;;;;;;;4974339;28;20210;-45
2024/01/26 03:56:07;;;;;;;212.43;60.22;;;;;;;;;;4974482;28;20178;-47
2024/01/26 03:58:33;;;;;;;215.67;65.30;;;;;;;;;;4975884;28;20586;-47
2024/01/26 04:00:59;;;;;;;214.32;63.38;;;;;;;;;;4974476;28;20856;-46
2024/01/26 04:03:25;;;;;;;213.75;63.88;;;;;;;;;;4974709;28;20770;-47
2024/01/26 04:05:51;;;;;;;216.13;66.20;;;;;;;;;;4974717;28;20591;-47
2024/01/26 04:08:18;;;;;;;212.77;60.80;;;;;;;;;;4975171;28;20213;-47
2024/01/26 04:10:44;;;;;;;210.20;58.72;;;;;;;;;;4974776;28;20412;-47
2024/01/26 04:13:10;;;;;;;216.27;63.40;;;;;;;;;;4980852;28;20639;-47
2024/01/26 04:15:36;;;;;;;216.47;64.53;;;;;;;;;;4977620;28;20428;-46
2024/01/26 04:18:02;;;;;;;214.77;63.17;;;;;;;;;;4978615;28;20419;-48
2024/01/26 04:20:28;;;;;;;213.23;62.00;;;;;;;;;;4978914;28;20408;-49
2024/01/26 04:22:54;;;;;;;216.05;63.92;;;;;;;;;;4978539;28;20181;-48
2024/01/26 04:25:20;;;;;;;215.37;65.07;;;;;;;;;;4978114;28;20194;-47
2024/01/26 04:27:46;;;;;;;216.20;62.73;;;;;;;;;;4978500;28;20504;-47
2024/01/26 04:30:12;;;;;;;215.23;61.83;;;;;;;;;;4978071;28;20869;-47
2024/01/26 04:32:38;;;;;;;216.77;64.43;;;;;;;;;;4978378;28;20464;-47
2024/01/26 04:35:04;;;;;;;216.95;63.60;;;;;;;;;;4977808;28;20193;-47
2024/01/26 04:37:30;;;;;;;216.55;62.80;;;;;;;;;;4978095;28;20166;-47
2024/01/26 04:39:57;;;;;;;217.97;66.37;;;;;;;;;;4978425;28;20176;-45
2024/01/26 04:42:22;;;;;;;214.93;60.80;;;;;;;;;;4977832;28;20417;-48
2024/01/26 04:44:48;;;;;;;213.37;61.40;;;;;;;;;;4977160;28;20252;-46
2024/01/26 04:47:14;;;;;;;215.67;66.63;;;;;;;;;;4977360;28;20500;-45
2024/01/26 04:49:40;;;;;;;212.17;63.03;;;;;;;;;;4977463;28;20794;-47
2024/01/26 04:52:06;;;;;;;215.43;63.50;;;;;;;;;;4978259;28;20494;-47
2024/01/26 04:54:32;;;;;;;217.60;63.67;;;;;;;;;;4978361;28;20497;-46
2024/01/26 04:56:58;;;;;;;215.67;61.50;;;;;;;;;;4978654;28;20409;-48
2024/01/26 04:59:24;;;;;;;217.00;61.63;;;;;;;;;;4978331;28;20441;-47
2024/01/26 05:01:51;;;;;;;214.83;60.87;;;;;;;;;;4978402;28;20451;-47
2024/01/26 05:04:16;;;;;;;216.15;64.30;;;;;;;;;;4978564;28;20435;-47
2024/01/26 05:06:43;;;;;;;214.47;63.47;;;;;;;;;;4978397;28;20718;-47
2024/01/26 05:09:09;;;;;;;215.50;64.88;;;;;;;;;;4977934;28;20424;-47
2024/01/26 05:11:37;;;;;;;212.97;61.27;;;;;;;;;;4981523;28;20181;-47
2024/01/26 05:14:02;;;;;;;215.57;63.20;;;;;;;;;;4978921;28;20988;-47
2024/01/26 05:16:28;;;;;;;212.97;59.40;;;;;;;;;;4977178;28;20173;-46
2024/01/26 05:18:54;;;;;;;216.67;65.20;;;;;;;;;;4977781;28;20421;-46
2024/01/26 05:21:20;;;;;;;212.38;61.05;;;;;;;;;;4974018;28;20923;-45
2024/01/26 05:23:46;;;;;;;213.67;64.90;;;;;;;;;;4976866;28;20202;-47
2024/01/26 05:26:12;;;;;;;208.47;59.37;;;;;;;;;;4975955;28;20469;-48
2024/01/26 05:28:39;;;;;;;211.67;61.00;;;;;;;;;;4977103;28;20415;-47
2024/01/26 05:31:05;;;;;;;212.73;61.08;;;;;;;;;;4976911;28;20498;-46
2024/01/26 05:33:31;;;;;;;220.68;65.57;;;;;;;;;;4976484;28;20188;-46
2024/01/26 05:35:57;;;;;;;209.40;62.95;;;;;;;;;;4976923;28;20182;-46
2024/01/26 05:38:23;;;;;;;207.57;62.23;;;;;;;;;;4977391;28;20170;-47
2024/01/26 05:40:49;;;;;;;205.20;60.83;;;;;;;;;;4976356;28;20466;-46
2024/01/26 05:43:15;;;;;;;210.20;64.03;;;;;;;;;;4975627;28;20536;-47
2024/01/26 05:45:41;;;;;;;208.73;59.37;;;;;;;;;;4975670;28;20437;-47
2024/01/26 05:48:07;;;;;;;209.03;59.57;;;;;;;;;;4975959;28;20416;-47
2024/01/26 05:50:33;;;;;;;210.95;60.38;;;;;;;;;;4975752;28;20420;-46
2024/01/26 05:52:59;;;;;;;208.18;58.45;;;;;;;;;;4975343;28;20177;-45
2024/01/26 05:55:25;;;;;;;211.60;61.80;;;;;;;;;;4975157;28;20686;-46
2024/01/26 05:57:51;;;;;;;208.07;60.63;;;;;;;;;;4975567;28;20421;-46
2024/01/26 06:00:17;;;;;;;209.27;62.40;;;;;;;;;;4975432;28;20413;-46
2024/01/26 06:02:43;;;;;;;211.30;65.00;;;;;;;;;;4974525;28;20409;-45
2024/01/26 06:05:09;;;;;;;211.30;63.28;;;;;;;;;;4974446;28;20202;-45
2024/01/26 06:07:35;;;;;;;208.63;60.40;;;;;;;;;;4974891;28;20181;-46
2024/01/26 06:10:01;;;;;;;210.77;63.27;;;;;;;;;;4974555;28;20406;-47
2024/01/26 06:12:27;;;;;;;209.13;61.20;;;;;;;;;;4974942;28;20402;-48
2024/01/26 06:14:53;;;;;;;208.87;60.63;;;;;;;;;;4974028;28;20548;-46
2024/01/26 06:17:20;;;;;;;209.57;60.77;;;;;;;;;;4975420;28;20476;-47
2024/01/26 06:19:47;;;;;;;210.00;62.33;;;;;;;;;;4979972;28;20413;-47
2024/01/26 06:22:13;;;;;;;210.18;61.90;;;;;;;;;;4975222;28;20178;-46
2024/01/26 06:24:39;;;;;;;213.60;65.97;;;;;;;;;;4974473;28;20564;-46
2024/01/26 06:27:05;;;;;;;210.80;62.13;;;;;;;;;;4969492;28;20455;-46
2024/01/26 06:29:31;;;;;;;208.87;59.67;;;;;;;;;;4980638;28;20619;-48
2024/01/26 06:32:00;;;;;;;213.23;62.67;;;;;;;;;;4974313;28;20421;-46
2024/01/26 06:34:26;;;;;;;214.43;63.42;;;;;;;;;;4973565;28;20496;-47
2024/01/26 06:36:53;;;;;;;210.63;62.57;;;;;;;;;;4973936;28;20264;-46
2024/01/26 06:39:19;;;;;;;211.63;63.97;;;;;;;;;;4974558;28;20410;-47
2024/01/26 06:41:45;;;;;;;210.43;60.27;;;;;;;;;;4974866;28;20220;-45
2024/01/26 06:44:13;;;;;;;210.87;60.30;;;;;;;;;;4979145;28;20955;-46
2024/01/26 06:46:40;;;;;;;209.07;60.55;;;;;;;;;;4973382;28;20440;-45
2024/01/26 06:49:06;;;;;;;212.60;64.28;;;;;;;;;;4973725;28;20248;-45
2024/01/26 06:51:31;;;;;;;211.33;63.03;;;;;;;;;;4973427;28;20182;-45
2024/01/26 06:54:01;;;;;;;210.20;60.40;;;;;;;;;;4973146;28;20493;-45
2024/01/26 06:56:27;;;;;;;213.68;65.32;;;;;;;;;;4973240;28;20542;-46
2024/01/26 06:58:52;;;;;;;211.85;60.72;;;;;;;;;;4973721;28;20202;-45
2024/01/26 07:01:18;;;;;;;211.63;63.60;;;;;;;;;;4973365;28;20604;-46
2024/01/26 07:03:44;;;;;;;213.68;65.78;;;;;;;;;;4972697;28;20837;-45
2024/01/26 07:06:10;;;;;;;212.97;61.87;;;;;;;;;;4973072;28;20186;-45
2024/01/26 07:08:36;;;;;;;213.20;62.57;;;;;;;;;;4973167;28;20423;-46
2024/01/26 07:11:02;;;;;;;213.25;62.28;;;;;;;;;;4973052;28;20424;-46
2024/01/26 07:13:28;;;;;;;216.73;64.87;;;;;;;;;;4972791;28;20580;-46
2024/01/26 07:15:54;;;;;;;209.48;58.80;;;;;;;;;;4973006;28;20557;-45
2024/01/26 07:18:20;;;;;;;210.80;60.70;;;;;;;;;;4972766;28;20253;-45
2024/01/26 07:20:46;;;;;;;206.90;56.67;;;;;;;;;;4973260;28;20401;-46
2024/01/26 07:23:12;;;;;;;211.47;60.07;;;;;;;;;;4972832;28;20405;-46
2024/01/26 07:25:38;;;;;;;207.17;56.67;;;;;;;;;;4972737;28;20467;-46
2024/01/26 07:28:07;;;;;;;210.93;61.70;;;;;;;;;;4974717;28;20493;-46
2024/01/26 07:30:33;;;;;;;212.23;60.30;;;;;;;;;;4972859;28;20778;-45
2024/01/26 07:32:59;;;;;;;209.10;57.88;;;;;;;;;;4972514;28;20708;-45
2024/01/26 07:35:25;;;;;;;211.93;60.07;;;;;;;;;;4972522;28;20268;-45
2024/01/26 07:37:51;;;;;;;209.07;56.28;;;;;;;;;;4972934;28;20430;-45
2024/01/26 07:40:17;;;;;;;208.57;57.73;;;;;;;;;;4972865;28;20201;-45
2024/01/26 07:42:43;;;;;;;210.50;60.80;;;;;;;;;;4972734;28;20413;-45
2024/01/26 07:45:09;;;;;;;208.65;58.17;;;;;;;;;;4972375;28;20444;-45
2024/01/26 07:47:35;;;;;;;208.93;58.90;;;;;;;;;;4972726;28;20180;-46
2024/01/26 07:50:05;;;;;;;206.85;55.78;;;;;;;;;;4976674;28;20185;-45
2024/01/26 07:52:31;;;;;;;210.68;60.38;;;;;;;;;;4976694;28;20634;-46
2024/01/26 07:54:57;;;;;;;211.45;59.85;;;;;;;;;;4976386;28;20284;-45
2024/01/26 07:57:25;;;;;;;210.47;58.50;;;;;;;;;;4976642;28;20262;-45
2024/01/26 07:59:51;;;;;;;212.88;61.25;;;;;;;;;;4976428;28;20408;-45
2024/01/26 08:02:17;;;;;;;211.25;56.75;;;;;;;;;;4976455;28;20185;-45
2024/01/26 08:04:43;;;;;;;212.13;58.90;;;;;;;;;;4976079;28;20193;-44
2024/01/26 08:07:09;;;;;;;212.20;57.37;;;;;;;;;;4976492;28;20262;-45
2024/01/26 08:09:35;;;;;;;209.70;58.03;;;;;;;;;;4976256;28;20409;-45
2024/01/26 08:12:01;;;;;;;208.63;56.53;;;;;;;;;;4976317;28;20441;-45
2024/01/26 08:14:27;;;;;;;214.67;61.37;;;;;;;;;;4975801;28;20464;-45
2024/01/26 08:16:53;;;;;;;208.70;58.57;;;;;;;;;;4976287;28;20893;-45
2024/01/26 08:19:19;;;;;;;209.77;57.20;;;;;;;;;;4976279;28;20987;-46
2024/01/26 08:21:46;;;;;;;210.63;57.28;;;;;;;;;;4980226;28;20412;-45
2024/01/26 08:24:12;;;;;;;212.85;59.20;;;;;;;;;;4975881;28;20676;-45
2024/01/26 08:26:38;;;;;;;213.17;59.07;;;;;;;;;;4976035;28;20197;-45
2024/01/26 08:29:04;;;;;;;208.63;57.60;;;;;;;;;;4976106;28;20415;-46
2024/01/26 08:31:30;;;;;;;212.27;60.40;;;;;;;;;;4988769;28;20177;-46
2024/01/26 08:33:56;;;;;;;218.33;59.83;;;;;;;;;;4973856;28;20475;-46
2024/01/26 08:36:22;;;;;;;194.23;59.30;;;;;;;;;;4975914;28;20501;-45
2024/01/26 08:38:50;;;;;;;190.35;61.85;;;;;;;;;;4975761;28;20754;-46
2024/01/26 08:41:17;;;;;;;179.13;55.10;;;;;;;;;;4975903;28;20260;-45
2024/01/26 08:43:43;;;;;;;197.18;57.35;;;;;;;;;;4975326;28;20217;-45
2024/01/26 08:46:10;;;;;;;192.73;60.05;;;;;;;;;;4976019;28;20221;-45
2024/01/26 08:48:36;;;;;;;190.43;57.58;;;;;;;;;;4975804;28;20212;-45
2024/01/26 08:51:03;;;;;;;193.87;59.57;;;;;;;;;;4981117;28;20206;-44
2024/01/26 08:53:29;;;;;;;199.70;62.30;;;;;;;;;;4975327;28;20463;-45
2024/01/26 08:55:55;;;;;;;207.73;60.07;;;;;;;;;;4975551;28;20208;-45
2024/01/26 08:58:21;;;;;;;214.77;61.80;;;;;;;;;;4975354;28;20410;-45
2024/01/26 09:00:47;;;;;;;216.80;62.90;;;;;;;;;;4975250;28;20540;-45
2024/01/26 09:03:14;;;;;;;216.37;60.93;;;;;;;;;;4975324;28;20409;-45
2024/01/26 09:05:40;;;;;;;219.80;64.25;;;;;;;;;;4975098;28;20790;-45
2024/01/26 09:08:06;;;;;;;219.83;64.67;;;;;;;;;;4975144;28;20181;-46
2024/01/26 09:10:32;;;;;;;214.65;62.38;;;;;;;;;;4974162;28;20410;-45
2024/01/26 09:12:58;;;;;;;220.03;66.23;;;;;;;;;;4974823;28;20183;-47
2024/01/26 09:15:24;;;;;;;215.57;62.83;;;;;;;;;;4974683;28;20424;-45
2024/01/26 09:17:49;;;;;;;213.33;61.40;;;;;;;;;;4975195;28;20464;-45
2024/01/26 09:20:15;;;;;;;216.03;64.20;;;;;;;;;;4974832;28;20420;-46
2024/01/26 09:22:43;;;;;;;218.40;65.07;;;;;;;;;;4974924;28;20407;-46
2024/01/26 09:25:09;;;;;;;211.45;60.67;;;;;;;;;;4974659;28;20210;-46
2024/01/26 09:27:35;;;;;;;216.35;65.90;;;;;;;;;;4974777;28;20227;-46
2024/01/26 09:30:01;;;;;;;211.70;61.63;;;;;;;;;;4975076;28;20189;-46
2024/01/26 09:32:27;;;;;;;211.18;61.58;;;;;;;;;;4974978;28;20415;-45
2024/01/26 09:34:53;;;;;;;211.52;61.05;;;;;;;;;;4974504;28;20216;-46
2024/01/26 09:37:21;;;;;;;212.00;61.25;;;;;;;;;;4976306;28;20166;-46
2024/01/26 09:39:47;;;;;;;211.20;61.45;;;;;;;;;;4979283;28;20173;-46
2024/01/26 09:42:13;;;;;;;217.88;68.65;;;;;;;;;;4974668;28;20261;-46
2024/01/26 09:44:39;;;;;;;212.35;60.65;;;;;;;;;;4971338;28;20276;-46
2024/01/26 09:47:10;;;;;;;215.10;63.67;;;;;;;;;;4974481;28;20274;-46
2024/01/26 09:49:37;;;;;;;214.30;64.32;;;;;;;;;;4974490;28;20417;-46
2024/01/26 09:52:03;;;;;;;212.73;60.10;;;;;;;;;;4974423;28;20493;-47
2024/01/26 09:54:29;;;;;;;214.90;63.70;;;;;;;;;;4973863;28;20269;-46
2024/01/26 09:56:55;;;;;;;216.27;66.27;;;;;;;;;;4974377;28;20585;-46
2024/01/26 09:59:21;;;;;;;213.23;60.38;;;;;;;;;;4966499;28;20492;-46
2024/01/26 10:01:50;;;;;;;215.83;65.60;;;;;;;;;;4974243;28;20257;-46
2024/01/26 10:04:16;;;;;;;221.20;70.40;;;;;;;;;;4973815;28;20438;-46
2024/01/26 10:06:43;;;;;;;220.65;68.38;;;;;;;;;;4973949;28;20229;-46
2024/01/26 10:09:12;;;;;;;220.10;69.55;;;;;;;;;;4973870;28;20261;-46
2024/01/26 10:11:38;;;;;;;213.40;61.00;;;;;;;;;;4973470;28;20178;-46
2024/01/26 10:14:04;;;;;;;212.43;61.80;;;;;;;;;;4973593;28;20735;-46
2024/01/26 10:16:30;;;;;;;217.93;65.17;;;;;;;;;;4972465;28;20897;-46
2024/01/26 10:18:56;;;;;;;218.60;66.63;;;;;;;;;;4972532;28;20834;-46
2024/01/26 10:21:22;;;;;;;214.33;63.83;;;;;;;;;;4978027;28;20410;-46
2024/01/26 10:23:48;;;;;;;221.32;71.53;;;;;;;;;;4972458;28;20441;-46
2024/01/26 10:26:14;;;;;;;214.60;65.47;;;;;;;;;;4973258;28;20266;-47
2024/01/26 10:28:41;;;;;;;217.48;63.58;;;;;;;;;;4973688;28;20207;-47
2024/01/26 10:31:07;;;;;;;213.18;61.58;;;;;;;;;;4973840;28;20191;-46
2024/01/26 10:33:33;;;;;;;220.80;69.00;;;;;;;;;;4973419;28;20230;-46
2024/01/26 10:36:00;;;;;;;218.70;67.70;;;;;;;;;;4973798;28;20414;-46
2024/01/26 10:38:30;;;;;;;214.82;63.40;;;;;;;;;;4979525;28;20892;-46
2024/01/26 10:41:03;;;;;;;220.82;69.10;;;;;;;;;;4973691;28;20183;-46
2024/01/26 10:43:29;;;;;;;219.35;65.63;;;;;;;;;;4973570;28;20184;-46
2024/01/26 10:45:56;;;;;;;218.23;64.15;;;;;;;;;;4973557;28;20184;-46
2024/01/26 10:48:22;;;;;;;215.93;63.75;;;;;;;;;;4973676;28;20178;-45
2024/01/26 10:50:48;;;;;;;219.88;68.72;;;;;;;;;;4973387;28;20193;-46
2024/01/26 10:53:15;;;;;;;218.70;66.63;;;;;;;;;;4973541;28;20277;-45
2024/01/26 10:55:41;;;;;;;221.27;69.88;;;;;;;;;;4973144;28;20418;-45
2024/01/26 10:58:07;;;;;;;219.40;65.90;;;;;;;;;;4973485;28;20200;-45
2024/01/26 11:00:34;;;;;;;220.60;67.15;;;;;;;;;;4973467;28;20204;-46
2024/01/26 11:03:00;;;;;;;217.50;63.80;;;;;;;;;;4973406;28;20169;-45
2024/01/26 11:05:26;;;;;;;216.85;64.72;;;;;;;;;;4973066;28;20277;-45
2024/01/26 11:07:52;;;;;;;215.40;63.42;;;;;;;;;;4973676;28;20228;-46
2024/01/26 11:10:23;;;;;;;216.85;66.07;;;;;;;;;;4973283;28;20174;-45
2024/01/26 11:13:00;;;;;;;213.88;62.33;;;;;;;;;;4973134;28;20184;-45
2024/01/26 11:15:26;;;;;;;215.20;63.60;;;;;;;;;;4972955;28;20566;-45
2024/01/26 11:17:53;;;;;;;213.45;60.28;;;;;;;;;;4973137;28;20205;-45
2024/01/26 11:20:25;;;;;;;212.40;60.28;;;;;;;;;;4980270;28;20538;-45
2024/01/26 11:23:01;;;;;;;213.88;62.00;;;;;;;;;;4991621;28;20710;-45
2024/01/26 11:25:33;;;;;;;209.45;58.17;;;;;;;;;;4977266;28;20189;-46
2024/01/26 11:27:59;;;;;;;209.35;59.22;;;;;;;;;;4972938;28;20196;-45
2024/01/26 11:30:25;;;;;;;210.88;58.67;;;;;;;;;;4972631;28;20646;-46
2024/01/26 11:32:52;;;;;;;213.07;63.42;;;;;;;;;;4972631;28;20264;-46
2024/01/26 11:35:20;;;;;;;212.20;61.95;;;;;;;;;;4972384;28;20197;-45
2024/01/26 11:37:47;;;;;;;208.27;58.92;;;;;;;;;;4972456;28;20589;-46
2024/01/26 11:40:14;;;;;;;207.25;60.47;;;;;;;;;;4972855;28;20210;-45
2024/01/26 11:42:41;;;;;;;212.18;62.60;;;;;;;;;;4972734;28;20176;-45
2024/01/26 11:45:08;;;;;;;206.48;58.38;;;;;;;;;;4978234;28;20208;-45
2024/01/26 11:47:38;;;;;;;208.80;58.08;;;;;;;;;;4972848;28;20248;-45
2024/01/26 11:50:04;;;;;;;210.65;60.00;;;;;;;;;;4972777;28;20228;-45
2024/01/26 11:52:32;;;;;;;211.70;61.70;;;;;;;;;;4972769;28;20185;-46
2024/01/26 11:54:58;;;;;;;209.20;59.83;;;;;;;;;;4972408;28;20307;-45
2024/01/26 11:57:24;;;;;;;207.27;57.90;;;;;;;;;;4972713;28;20694;-45
2024/01/26 11:59:50;;;;;;;211.60;63.28;;;;;;;;;;4972690;28;20429;-45
2024/01/26 12:02:16;;;;;;;211.77;62.80;;;;;;;;;;4972667;28;20201;-45
2024/01/26 12:04:42;;;;;;;211.35;62.97;;;;;;;;;;4972558;28;20807;-45
2024/01/26 12:07:08;;;;;;;212.50;64.50;;;;;;;;;;4972597;28;20267;-45
2024/01/26 12:09:34;;;;;;;213.18;63.88;;;;;;;;;;4972654;28;20478;-45
2024/01/26 12:12:00;;;;;;;213.63;62.53;;;;;;;;;;4972332;28;20665;-45
2024/01/26 12:14:27;;;;;;;213.67;62.83;;;;;;;;;;4972217;28;20220;-45
2024/01/26 12:16:53;;;;;;;214.93;66.57;;;;;;;;;;4972688;28;20781;-45
2024/01/26 12:19:20;;;;;;;212.50;63.13;;;;;;;;;;4972513;28;20184;-45
2024/01/26 12:21:47;;;;;;;210.57;62.00;;;;;;;;;;4972415;28;20212;-45
2024/01/26 12:24:13;;;;;;;213.85;64.28;;;;;;;;;;4972120;28;20205;-46
2024/01/26 12:26:39;;;;;;;214.57;64.20;;;;;;;;;;4972173;28;20182;-45
2024/01/26 12:29:07;;;;;;;215.60;66.23;;;;;;;;;;4972646;28;20186;-45
2024/01/26 12:31:34;;;;;;;218.90;72.55;;;;;;;;;;4972546;28;20529;-45
2024/01/26 12:34:01;;;;;;;219.30;71.30;;;;;;;;;;4972691;28;20283;-45
2024/01/26 12:36:33;;;;;;;218.82;71.63;;;;;;;;;;4975877;28;20634;-46
2024/01/26 12:39:00;;;;;;;227.65;81.32;;;;;;;;;;4968752;28;20555;-45
2024/01/26 12:41:29;;;;;;;227.27;78.72;;;;;;;;;;4975899;28;20188;-45
2024/01/26 12:43:56;;;;;;;227.63;82.60;;;;;;;;;;4975449;28;20236;-45
2024/01/26 12:46:22;;;;;;;230.13;86.72;;;;;;;;;;4975570;28;20181;-45
2024/01/26 12:48:48;;;;;;;228.83;81.80;;;;;;;;;;4975404;28;20166;-45
2024/01/26 12:51:14;;;;;;;229.03;80.20;;;;;;;;;;4979418;28;20547;-45
2024/01/26 12:53:42;;;;;;;225.77;77.73;;;;;;;;;;4975009;28;20464;-45
2024/01/26 12:56:08;;;;;;;225.90;79.65;;;;;;;;;;4975459;28;20405;-44
2024/01/26 12:58:34;;;;;;;226.37;81.90;;;;;;;;;;4975574;28;20181;-45
2024/01/26 13:01:01;;;;;;;229.25;84.18;;;;;;;;;;4975344;28;20994;-45
2024/01/26 13:03:27;;;;;;;230.07;82.28;;;;;;;;;;4974971;28;20173;-45
2024/01/26 13:05:53;;;;;;;223.27;76.80;;;;;;;;;;4975302;28;20179;-45
2024/01/26 13:08:20;;;;;;;226.77;80.72;;;;;;;;;;4975193;28;20814;-45
2024/01/26 13:10:46;;;;;;;227.50;80.75;;;;;;;;;;4975107;28;20538;-45
2024/01/26 13:13:13;;;;;;;233.02;87.70;;;;;;;;;;4975005;28;20660;-45
2024/01/26 13:15:39;;;;;;;228.15;81.95;;;;;;;;;;4974905;28;20224;-44
2024/01/26 13:18:06;;;;;;;227.35;83.28;;;;;;;;;;4975161;28;20169;-45
2024/01/26 13:20:32;;;;;;;222.85;80.05;;;;;;;;;;4975012;28;20174;-45
2024/01/26 13:22:58;;;;;;;222.45;76.68;;;;;;;;;;4974685;28;20184;-45
2024/01/26 13:25:24;;;;;;;221.32;77.38;;;;;;;;;;4974767;28;20189;-44
2024/01/26 13:27:51;;;;;;;223.20;78.45;;;;;;;;;;4974879;28;20193;-44
2024/01/26 13:30:17;;;;;;;225.80;80.75;;;;;;;;;;4974820;28;20646;-45
2024/01/26 13:32:43;;;;;;;223.90;78.57;;;;;;;;;;4974754;28;20176;-45
2024/01/26 13:35:09;;;;;;;222.43;76.90;;;;;;;;;;4974419;28;20203;-44
2024/01/26 13:37:39;;;;;;;224.82;81.53;;;;;;;;;;4974626;28;20228;-45
2024/01/26 13:40:05;;;;;;;224.63;79.35;;;;;;;;;;4974677;28;20193;-44
2024/01/26 13:42:34;;;;;;;227.65;82.88;;;;;;;;;;4974580;28;20598;-44
2024/01/26 13:45:00;;;;;;;223.18;78.93;;;;;;;;;;4973647;28;20193;-44
2024/01/26 13:47:26;;;;;;;226.43;83.93;;;;;;;;;;4973040;28;20252;-44
2024/01/26 13:49:55;;;;;;;225.67;80.00;;;;;;;;;;4972676;28;20661;-43
2024/01/26 13:52:21;;;;;;;225.65;81.22;;;;;;;;;;4973475;28;20413;-43
2024/01/26 13:54:47;;;;;;;222.47;77.47;;;;;;;;;;4973248;28;20216;-43
2024/01/26 13:57:15;;;;;;;222.43;78.83;;;;;;;;;;4973649;28;20877;-43
2024/01/26 13:59:41;;;;;;;226.68;82.88;;;;;;;;;;4974600;28;20499;-43
2024/01/26 14:02:07;;;;;;;221.70;76.97;;;;;;;;;;4974239;28;20189;-44